Time;durP1;ratioP1;P1;durP2;ratioP2;P2;SDS_P1;SDS_P2;PMS_P1;PMS_P2;Temp;Humidity;BMP_temperature;BMP_pressure;BME280_temperature;BME280_humidity;BME280_pressure;Samples;Min_cycle;Max_cycle;Signal;HPM_P1;HPM_P2
2021/03/21 00:00:45;;;;;;;12.40;7.85;;;;;;;18.91;27.96;99586.62;1803346;78;22146;-17
2021/03/21 00:03:14;;;;;;;11.88;7.53;;;;;;;18.89;27.92;99589.39;1800856;78;21216;-15
2021/03/21 00:05:43;;;;;;;9.35;7.03;;;;;;;18.89;27.89;99584.05;1790529;78;21127;-15
2021/03/21 00:08:23;;;;;;;12.33;7.45;;;;;;;18.88;27.84;99579.70;1802991;78;21192;-17
2021/03/21 00:11:03;;;;;;;9.88;7.35;;;;;;;18.89;27.90;99584.05;1761826;80;21567;-15
2021/03/21 00:13:30;;;;;;;9.83;7.00;;;;;;;18.88;27.93;99581.03;1797682;78;21203;-16
2021/03/21 00:15:58;;;;;;;9.93;7.10;;;;;;;18.86;28.01;99581.63;1794192;78;21125;-15
2021/03/21 00:18:31;;;;;;;8.78;6.65;;;;;;;18.84;27.94;99576.85;1796556;78;22110;-15
2021/03/21 00:20:59;;;;;;;11.45;7.08;;;;;;;18.85;27.92;99579.06;1786723;78;21217;-18
2021/03/21 00:23:26;;;;;;;9.83;7.05;;;;;;;18.84;27.97;99572.01;1733311;80;21154;-16
2021/03/21 00:25:54;;;;;;;10.13;6.67;;;;;;;18.82;27.93;99574.74;1716486;82;21240;-15
2021/03/21 00:28:27;;;;;;;7.25;6.20;;;;;;;18.82;27.85;99568.08;1747891;80;21157;-17
2021/03/21 00:30:55;;;;;;;7.97;6.50;;;;;;;18.83;27.90;99569.83;1757057;80;21229;-15
2021/03/21 00:33:25;;;;;;;7.78;6.28;;;;;;;18.82;27.90;99560.57;1733705;80;21142;-15
2021/03/21 00:35:53;;;;;;;10.80;6.90;;;;;;;18.80;27.87;99563.34;1782921;78;21153;-17
2021/03/21 00:38:32;;;;;;;6.92;6.17;;;;;;;18.80;27.89;99559.34;1751100;81;21269;-14
2021/03/21 00:40:59;;;;;;;7.60;6.55;;;;;;;18.79;27.94;99561.62;1712442;81;21704;-17
2021/03/21 00:43:27;;;;;;;9.43;6.92;;;;;;;18.79;27.98;99566.10;1752873;80;21206;-18
2021/03/21 00:45:55;;;;;;;9.43;6.58;;;;;;;18.75;28.03;99557.47;1756098;80;21192;-17
2021/03/21 00:48:26;;;;;;;9.05;6.37;;;;;;;18.74;28.04;99554.41;1733432;81;21122;-16
2021/03/21 00:50:55;;;;;;;10.88;6.65;;;;;;;18.72;28.04;99557.18;1708929;82;21208;-17
2021/03/21 00:53:23;;;;;;;10.58;6.87;;;;;;;18.72;28.03;99559.00;1747632;80;21194;-16
2021/03/21 00:55:51;;;;;;;9.83;7.10;;;;;;;18.70;28.07;99554.27;1734124;80;21181;-16
2021/03/21 00:58:19;;;;;;;10.10;6.55;;;;;;;18.70;28.12;99556.92;1749256;80;21146;-17
2021/03/21 01:00:50;;;;;;;12.23;7.08;;;;;;;18.69;28.22;99553.88;1731527;80;21223;-16
2021/03/21 01:03:17;;;;;;;11.40;7.25;;;;;;;18.67;28.17;99552.64;1731848;80;21533;-16
2021/03/21 01:05:53;;;;;;;10.72;7.53;;;;;;;18.68;28.16;99558.85;1734979;82;21133;-18
2021/03/21 01:08:31;;;;;;;10.72;6.60;;;;;;;18.67;28.22;99554.47;1725641;80;21280;-16
2021/03/21 01:11:02;;;;;;;8.35;6.30;;;;;;;18.67;28.24;99549.13;1710031;80;21162;-16
2021/03/21 01:13:30;;;;;;;8.48;6.70;;;;;;;18.67;28.17;99554.47;1747132;80;21138;-16
2021/03/21 01:15:58;;;;;;;8.08;6.35;;;;;;;18.65;28.20;99554.56;1703020;81;21222;-16
2021/03/21 01:18:30;;;;;;;11.05;6.50;;;;;;;18.63;28.22;99548.98;1731552;81;21178;-16
2021/03/21 01:20:58;;;;;;;8.00;6.00;;;;;;;18.62;28.25;99552.59;1732658;81;21164;-18
2021/03/21 01:23:26;;;;;;;7.08;6.08;;;;;;;18.62;28.19;99548.59;1737050;81;21160;-16
2021/03/21 01:25:54;;;;;;;8.33;6.25;;;;;;;18.62;28.21;99549.92;1708344;81;21173;-16
2021/03/21 01:28:26;;;;;;;7.15;5.83;;;;;;;18.62;28.29;99547.26;1740857;81;21393;-16
2021/03/21 01:30:55;;;;;;;7.75;6.03;;;;;;;18.61;28.29;99544.20;1725334;81;21267;-19
2021/03/21 01:33:22;;;;;;;8.75;5.92;;;;;;;18.61;28.34;99545.55;1798083;78;21073;-16
2021/03/21 01:35:50;;;;;;;15.30;5.87;;;;;;;18.60;28.40;99549.19;1803736;78;21109;-15
2021/03/21 01:38:18;;;;;;;12.13;6.10;;;;;;;18.59;28.38;99547.46;1791767;78;21142;-17
2021/03/21 01:40:48;;;;;;;7.62;5.67;;;;;;;18.59;28.40;99542.13;1784062;79;21196;-17
2021/03/21 01:43:17;;;;;;;7.60;5.92;;;;;;;18.58;28.41;99541.29;1784442;78;21124;-15
2021/03/21 01:45:51;;;;;;;8.10;5.80;;;;;;;18.56;28.44;99537.39;1762968;79;21613;-16
2021/03/21 01:48:42;;;;;;;7.15;5.95;;;;;;;18.56;28.50;99541.88;1784752;78;21157;-16
2021/03/21 01:51:17;;;;;;;7.22;5.70;;;;;;;18.53;28.56;99540.26;1782270;78;21205;-17
2021/03/21 01:53:47;;;;;;;8.70;5.92;;;;;;;18.53;28.50;99540.26;1762423;78;21188;-16
2021/03/21 01:56:16;;;;;;;7.35;5.10;;;;;;;18.54;28.58;99539.31;1787234;78;21125;-15
2021/03/21 01:58:44;;;;;;;7.28;5.80;;;;;;;18.53;28.66;99538.92;1793598;78;21097;-18
2021/03/21 02:01:17;;;;;;;8.68;6.00;;;;;;;18.52;28.65;99531.88;1749528;80;21105;-16
2021/03/21 02:03:46;;;;;;;7.12;5.45;;;;;;;18.51;28.59;99530.19;1765619;79;21101;-16
2021/03/21 02:07:00;;;;;;;6.17;5.17;;;;;;;18.51;28.64;99526.20;1789928;78;21216;-16
2021/03/21 02:09:58;;;;;;;8.03;5.62;;;;;;;18.50;28.62;99521.81;1795830;78;21624;-16
2021/03/21 02:12:49;;;;;;;7.25;5.28;;;;;;;18.48;28.72;99523.73;1794423;78;21202;-16
2021/03/21 02:15:31;;;;;;;7.10;5.55;;;;;;;18.47;28.79;99525.16;1807434;78;21164;-16
2021/03/21 02:18:04;;;;;;;7.25;5.62;;;;;;;18.45;28.76;99514.61;1802030;79;21228;-15
2021/03/21 02:21:01;;;;;;;5.28;4.78;;;;;;;18.43;28.86;99516.53;1796794;78;21769;-17
2021/03/21 02:23:54;;;;;;;6.28;4.75;;;;;;;18.42;28.93;99512.14;1760861;78;21124;-18
2021/03/21 02:26:53;;;;;;;6.90;5.28;;;;;;;18.41;28.86;99515.78;1799333;78;21093;-18
2021/03/21 02:29:37;;;;;;;5.83;4.95;;;;;;;18.39;28.91;99508.34;1774049;78;21158;-16
2021/03/21 02:32:22;;;;;;;6.78;5.05;;;;;;;18.40;28.86;99510.06;1792861;78;21192;-16
2021/03/21 02:35:20;;;;;;;5.67;4.83;;;;;;;18.40;28.98;99507.41;1761489;78;21576;-17
2021/03/21 02:37:59;;;;;;;6.67;5.20;;;;;;;18.40;28.96;99499.41;1760316;78;21597;-16
2021/03/21 02:40:52;;;;;;;5.55;4.62;;;;;;;18.42;28.86;99500.64;1809943;77;23249;-15
2021/03/21 02:43:31;;;;;;;6.60;4.97;;;;;;;18.37;28.83;99495.16;1715765;81;21209;-16
2021/03/21 02:46:04;;;;;;;6.58;5.10;;;;;;;18.37;28.70;99494.28;1723272;82;22013;-16
2021/03/21 02:48:36;;;;;;;6.42;5.05;;;;;;;18.38;28.63;99493.34;1712866;82;21249;-18
2021/03/21 02:51:10;;;;;;;9.90;5.00;;;;;;;18.35;28.63;99493.55;1766884;80;21165;-16
2021/03/21 02:53:43;;;;;;;5.60;4.92;;;;;;;18.35;28.53;99491.72;1753740;79;21138;-19
2021/03/21 02:56:14;;;;;;;6.72;5.00;;;;;;;18.36;28.45;99492.59;1737358;80;21125;-16
2021/03/21 02:59:04;;;;;;;5.15;4.62;;;;;;;18.35;28.43;99488.22;1734957;81;21371;-16
2021/03/21 03:01:46;;;;;;;6.67;5.17;;;;;;;18.34;28.45;99488.70;1742623;81;21237;-15
2021/03/21 03:04:17;;;;;;;4.97;4.45;;;;;;;18.34;28.37;99487.83;1714216;81;21231;-16
2021/03/21 03:06:55;;;;;;;5.87;4.60;;;;;;;18.34;28.35;99481.17;1745293;81;21199;-15
2021/03/21 03:09:32;;;;;;;8.25;4.80;;;;;;;18.32;28.40;99479.94;1747424;81;21125;-15
2021/03/21 03:12:12;;;;;;;6.15;4.83;;;;;;;18.31;28.48;99478.25;1713379;81;21236;-16
2021/03/21 03:14:48;;;;;;;5.58;4.20;;;;;;;18.35;29.41;99470.91;1824624;78;22814;-16
2021/03/21 03:17:38;;;;;;;4.95;4.42;;;;;;;18.36;30.42;99479.28;1773552;77;21189;-18
2021/03/21 03:20:31;;;;;;;5.10;4.53;;;;;;;18.40;30.90;99484.77;1737986;80;21266;-16
2021/03/21 03:23:28;;;;;;;4.83;4.42;;;;;;;18.48;31.37;99490.91;1725546;79;21257;-15
2021/03/21 03:26:14;;;;;;;5.20;4.50;;;;;;;18.53;31.84;99486.97;1667040;84;21181;-16
2021/03/21 03:28:56;;;;;;;4.92;4.42;;;;;;;18.65;32.15;99476.44;1826840;77;22732;-15
2021/03/21 03:31:34;;;;;;;6.08;4.60;;;;;;;18.67;32.26;99483.84;1775219;78;21149;-15
2021/03/21 03:34:02;;;;;;;16.82;11.75;;;;;;;18.71;32.53;99476.88;1796918;77;22628;-14
2021/03/21 03:36:30;;;;;;;85.65;43.10;;;;;;;18.80;32.36;99479.86;1801233;78;21142;-17
2021/03/21 03:38:57;;;;;;;64.50;30.97;;;;;;;18.79;30.59;99472.81;1797005;78;21118;-16
2021/03/21 03:41:49;;;;;;;49.18;27.52;;;;;;;18.75;30.93;99465.02;1745151;80;21221;-16
2021/03/21 03:44:52;;;;;;;49.35;27.50;;;;;;;18.79;31.15;99468.33;1745580;80;21137;-15
2021/03/21 03:47:30;;;;;;;47.40;26.05;;;;;;;18.85;31.25;99464.43;1724230;81;21093;-19
2021/03/21 03:50:03;;;;;;;40.83;24.77;;;;;;;18.90;31.33;99459.63;1743241;81;21224;-20
2021/03/21 03:52:57;;;;;;;42.67;23.47;;;;;;;18.96;31.37;99461.00;1746989;81;21191;-18
2021/03/21 03:55:45;;;;;;;36.33;22.98;;;;;;;18.99;31.38;99456.30;1718205;81;21185;-16
2021/03/21 03:58:54;;;;;;;41.25;22.87;;;;;;;19.03;31.45;99454.27;1711014;82;21217;-19
2021/03/21 04:01:51;;;;;;;38.08;20.97;;;;;;;19.07;31.51;99453.11;1743842;81;21394;-18
2021/03/21 04:04:38;;;;;;;35.25;20.00;;;;;;;19.10;31.54;99449.73;1744136;81;21444;-19
2021/03/21 04:07:34;;;;;;;38.08;20.68;;;;;;;19.13;31.52;99449.98;1738716;81;21139;-15
2021/03/21 04:10:27;;;;;;;32.33;19.92;;;;;;;19.16;31.54;99449.77;1743819;81;21183;-18
2021/03/21 04:13:19;;;;;;;31.10;18.45;;;;;;;19.21;31.60;99448.95;1758117;81;22079;-16
2021/03/21 04:15:49;;;;;;;28.25;18.07;;;;;;;19.25;31.65;99453.62;1744489;81;21145;-19
2021/03/21 04:18:22;;;;;;;29.87;18.23;;;;;;;19.28;31.67;99448.91;1744629;81;21154;-18
2021/03/21 04:21:01;;;;;;;29.63;17.10;;;;;;;19.35;31.68;99451.11;1715797;81;21156;-20
2021/03/21 04:23:59;;;;;;;28.47;16.93;;;;;;;19.40;31.66;99448.97;1746416;81;21698;-18
2021/03/21 04:26:48;;;;;;;29.18;16.02;;;;;;;19.46;31.63;99447.20;1719065;81;21180;-18
2021/03/21 04:29:28;;;;;;;24.70;15.45;;;;;;;19.55;31.54;99441.66;1746639;81;21224;-16
2021/03/21 04:31:59;;;;;;;25.25;15.18;;;;;;;19.63;31.54;99441.47;1747414;81;21595;-17
2021/03/21 04:34:26;;;;;;;24.55;15.48;;;;;;;19.72;31.51;99435.09;1747023;81;21117;-16
2021/03/21 04:36:56;;;;;;;23.70;14.55;;;;;;;19.82;31.43;99444.14;1707001;81;21172;-18
2021/03/21 04:39:28;;;;;;;20.88;14.18;;;;;;;19.90;31.39;99440.92;1748553;81;21140;-17
2021/03/21 04:42:07;;;;;;;20.12;13.93;;;;;;;19.97;31.33;99432.34;1714883;81;22113;-17
2021/03/21 04:45:01;;;;;;;20.75;13.13;;;;;;;20.06;31.26;99436.14;1737745;81;21212;-17
2021/03/21 04:47:37;;;;;;;21.45;13.10;;;;;;;20.16;31.21;99438.97;1744793;81;21196;-16
2021/03/21 04:50:07;;;;;;;21.23;13.30;;;;;;;20.27;31.08;99434.98;1744209;81;21176;-19
2021/03/21 04:52:54;;;;;;;17.30;11.57;;;;;;;20.38;31.02;99432.84;1716536;81;21214;-17
2021/03/21 04:55:26;;;;;;;21.50;12.20;;;;;;;20.47;30.95;99433.45;1752985;81;21205;-15
2021/03/21 04:57:58;;;;;;;19.10;12.15;;;;;;;20.58;30.85;99431.30;1704780;80;21136;-19
2021/03/21 05:00:31;;;;;;;15.40;10.85;;;;;;;20.66;30.79;99438.28;1767401;80;21116;-18
2021/03/21 05:03:22;;;;;;;15.90;10.65;;;;;;;20.74;30.75;99435.83;1732442;81;21109;-16
2021/03/21 05:05:57;;;;;;;16.35;10.55;;;;;;;20.82;30.67;99433.06;1739396;80;21151;-19
2021/03/21 05:08:36;;;;;;;;;;;;;;;20.88;30.64;99432.56;1709300;81;21612;-15
2021/03/21 05:11:06;;;;;;;13.15;9.73;;;;;;;20.94;30.61;99435.59;1720009;81;20384;-16
2021/03/21 05:13:44;;;;;;;15.83;9.78;;;;;;;20.99;30.57;99431.23;1757743;80;21146;-19
2021/03/21 05:16:29;;;;;;;13.22;9.43;;;;;;;21.03;30.55;99428.70;1733351;81;21208;-16
2021/03/21 05:19:33;;;;;;;13.13;9.45;;;;;;;21.13;30.53;99431.00;1825895;77;22719;-18
2021/03/21 05:22:38;;;;;;;9.90;8.00;;;;;;;21.14;30.50;99430.00;1766455;78;21208;-20
2021/03/21 05:25:27;;;;;;;12.90;8.70;;;;;;;21.19;30.50;99432.81;1776508;79;21152;-16
2021/03/21 05:28:12;;;;;;;11.55;8.48;;;;;;;21.23;30.50;99427.56;1743545;79;21216;-21
2021/03/21 05:30:41;;;;;;;13.43;9.03;;;;;;;21.25;30.53;99433.17;1701180;82;21550;-16
2021/03/21 05:33:10;;;;;;;12.03;7.95;;;;;;;21.28;30.54;99426.23;1702348;81;21549;-17
2021/03/21 05:35:39;;;;;;;10.63;7.47;;;;;;;21.31;30.57;99429.98;1753026;80;21162;-16
2021/03/21 05:38:18;;;;;;;11.57;7.50;;;;;;;21.35;30.57;99430.61;1749131;80;21214;-16
2021/03/21 05:41:03;;;;;;;13.40;7.67;;;;;;;21.38;30.57;99430.34;1736068;80;21588;-19
2021/03/21 05:44:03;;;;;;;10.55;7.25;;;;;;;21.41;30.62;99422.06;1763591;79;21200;-16
2021/03/21 05:47:10;;;;;;;12.10;7.42;;;;;;;21.46;30.66;99419.02;1745258;80;21117;-18
2021/03/21 05:50:02;;;;;;;10.08;6.70;;;;;;;21.48;30.67;99425.97;1744178;81;21639;-15
2021/03/21 05:53:01;;;;;;;14.47;6.20;;;;;;;21.52;30.70;99419.91;1709802;81;21228;-16
2021/03/21 05:55:56;;;;;;;15.55;5.80;;;;;;;21.54;30.99;99430.48;1744434;81;21163;-16
2021/03/21 05:59:07;;;;;;;10.60;5.55;;;;;;;21.54;31.19;99430.48;1719211;81;21234;-18
2021/03/21 06:02:05;;;;;;;10.25;4.37;;;;;;;21.56;31.26;99432.54;1726714;81;21185;-15
2021/03/21 06:04:51;;;;;;;8.45;4.47;;;;;;;21.58;31.29;99429.24;1746459;80;21265;-16
2021/03/21 06:07:45;;;;;;;6.78;4.67;;;;;;;21.60;31.30;99426.82;1740453;80;22440;-15
2021/03/21 06:10:45;;;;;;;4.47;4.03;;;;;;;21.63;31.29;99425.20;1732144;81;21738;-15
2021/03/21 06:13:30;;;;;;;6.20;4.72;;;;;;;21.66;31.23;99420.09;1732785;81;21133;-18
2021/03/21 06:16:33;;;;;;;5.37;3.62;;;;;;;21.69;31.19;99415.83;1738282;81;21156;-15
2021/03/21 06:19:35;;;;;;;5.28;4.25;;;;;;;21.73;31.17;99409.73;1722484;81;21199;-16
2021/03/21 06:22:59;;;;;;;5.25;3.85;;;;;;;21.77;31.15;99414.72;1706496;82;21237;-16
2021/03/21 06:25:52;;;;;;;5.08;3.80;;;;;;;21.81;31.07;99417.98;1730737;82;21249;-15
2021/03/21 06:28:45;;;;;;;4.12;3.72;;;;;;;21.85;31.01;99408.70;1698717;82;21188;-15
2021/03/21 06:32:01;;;;;;;4.85;3.83;;;;;;;21.88;30.99;99412.47;1719355;81;21206;-15
2021/03/21 06:35:06;;;;;;;4.15;3.75;;;;;;;21.91;30.90;99413.55;1731786;80;21487;-15
2021/03/21 06:38:09;;;;;;;4.28;3.75;;;;;;;21.92;30.76;99403.19;1726267;80;23262;-19
2021/03/21 06:41:03;;;;;;;3.58;3.20;;;;;;;21.93;30.69;99400.88;1703495;82;21289;-16
2021/03/21 06:43:55;;;;;;;3.40;3.10;;;;;;;21.95;30.60;99384.19;1728749;80;21187;-18
2021/03/21 06:46:36;;;;;;;4.20;3.65;;;;;;;21.98;30.53;99383.09;1703002;82;21672;-19
2021/03/21 06:49:21;;;;;;;4.00;3.40;;;;;;;22.00;30.52;99374.42;1724117;80;21208;-18
2021/03/21 06:52:18;;;;;;;6.28;3.50;;;;;;;22.02;30.50;99371.13;1725712;81;21458;-17
2021/03/21 06:54:57;;;;;;;3.75;3.20;;;;;;;22.07;30.43;99372.92;1725683;81;21194;-19
2021/03/21 06:57:59;;;;;;;6.33;3.33;;;;;;;22.12;30.42;99379.23;1786943;78;21164;-20
2021/03/21 07:01:05;;;;;;;3.35;3.05;;;;;;;22.14;30.35;99375.45;1756808;79;21132;-16
2021/03/21 07:04:05;;;;;;;3.40;3.10;;;;;;;22.17;30.31;99371.15;1773528;79;21229;-16
2021/03/21 07:07:18;;;;;;;3.85;3.22;;;;;;;22.21;30.26;99365.06;1794080;78;21203;-17
2021/03/21 07:10:34;;;;;;;4.17;3.40;;;;;;;22.22;30.23;99367.58;1783181;79;21228;-15
2021/03/21 07:13:25;;;;;;;3.50;3.17;;;;;;;22.24;30.21;99354.93;1757980;80;21565;-17
2021/03/21 07:16:26;;;;;;;3.52;2.85;;;;;;;22.26;30.16;99349.44;1733719;80;21138;-16
2021/03/21 07:19:14;;;;;;;3.58;3.27;;;;;;;22.29;30.15;99345.66;1714100;79;21151;-15
2021/03/21 07:22:18;;;;;;;3.27;2.80;;;;;;;22.30;30.14;99337.48;1791394;79;21199;-16
2021/03/21 07:25:28;;;;;;;4.35;3.58;;;;;;;22.33;30.13;99338.57;1795154;78;21581;-19
2021/03/21 07:28:22;;;;;;;671.03;569.35;;;;;;;22.37;30.06;99329.77;1747098;80;21658;-16
2021/03/21 07:31:01;;;;;;;123.63;93.60;;;;;;;22.36;26.84;99322.70;1720793;82;21253;-20
2021/03/21 07:34:02;;;;;;;61.42;46.55;;;;;;;22.17;28.30;99325.59;1749703;80;21361;-18
2021/03/21 07:37:07;;;;;;;39.08;29.80;;;;;;;22.07;29.17;99316.66;1751224;80;21184;-21
2021/03/21 07:39:59;;;;;;;31.20;24.00;;;;;;;21.99;30.13;99314.65;1724544;81;21652;-17
2021/03/21 07:43:01;;;;;;;25.40;19.65;;;;;;;21.94;29.89;99310.64;1756790;80;21209;-17
2021/03/21 07:45:53;;;;;;;22.77;17.02;;;;;;;21.87;29.78;99299.60;1729360;81;21214;-16
2021/03/21 07:48:48;;;;;;;23.20;16.90;;;;;;;21.79;30.12;99306.97;1711656;80;21141;-16
2021/03/21 07:51:39;;;;;;;20.30;14.70;;;;;;;21.75;30.38;99292.63;1715022;82;21176;-17
2021/03/21 07:54:46;;;;;;;18.65;14.23;;;;;;;21.69;30.32;99292.66;1795312;78;21657;-16
2021/03/21 07:57:33;;;;;;;15.60;12.50;;;;;;;21.63;28.62;99283.30;1793858;78;21172;-16
2021/03/21 08:00:05;;;;;;;13.60;10.72;;;;;;;21.49;26.98;99284.47;1768589;78;21181;-16
2021/03/21 08:02:36;;;;;;;15.93;10.50;;;;;;;21.37;28.38;99278.78;1754857;79;21597;-17
2021/03/21 08:05:23;;;;;;;12.78;9.73;;;;;;;21.29;26.20;99283.42;1785296;79;21852;-19
2021/03/21 08:07:51;;;;;;;;;;;;;;;21.13;24.71;99277.16;1741481;81;21400;-15
2021/03/21 08:10:33;;;;;;;10.70;8.48;;;;;;;20.95;24.08;99265.30;1733588;81;20292;-15
2021/03/21 08:13:18;;;;;;;11.18;9.13;;;;;;;20.82;23.90;99265.44;1728905;81;21228;-18
2021/03/21 08:15:45;;;;;;;9.70;8.58;;;;;;;20.68;23.69;99262.56;1705086;82;21255;-19
2021/03/21 08:18:28;;;;;;;10.35;9.25;;;;;;;20.55;23.24;99255.13;1752975;80;21275;-18
2021/03/21 08:21:01;;;;;;;31.48;17.17;;;;;;;20.47;22.71;99252.22;1807465;78;21619;-16
2021/03/21 08:23:38;;;;;;;12.07;9.30;;;;;;;20.36;23.19;99247.25;1801891;78;21186;-16
2021/03/21 08:26:09;;;;;;;12.68;9.40;;;;;;;20.28;22.94;99241.66;1742870;81;21192;-16
2021/03/21 08:29:14;;;;;;;11.70;10.15;;;;;;;20.11;22.84;99244.83;1732382;80;21242;-16
2021/03/21 08:32:10;;;;;;;10.48;8.85;;;;;;;19.89;22.65;99234.48;1795235;78;22737;-15
2021/03/21 08:34:44;;;;;;;10.95;9.10;;;;;;;19.72;22.57;99242.89;1779476;79;21196;-15
2021/03/21 08:37:42;;;;;;;9.53;8.03;;;;;;;19.54;22.96;99231.34;1773621;79;21367;-19
2021/03/21 08:40:42;;;;;;;9.58;7.97;;;;;;;19.42;23.52;99222.95;1775548;80;21212;-20
2021/03/21 08:43:29;;;;;;;10.23;8.20;;;;;;;19.36;24.23;99218.91;1768635;79;21191;-17
2021/03/21 08:46:17;;;;;;;12.82;7.30;;;;;;;19.35;24.55;99225.23;1746899;79;21188;-16
2021/03/21 08:48:45;;;;;;;9.38;7.12;;;;;;;19.33;25.41;99218.30;1775083;80;21184;-18
2021/03/21 08:51:22;;;;;;;9.25;7.40;;;;;;;19.37;26.29;99214.45;1770584;79;21260;-20
2021/03/21 08:53:58;;;;;;;7.70;6.65;;;;;;;19.40;26.17;99211.52;1773814;79;21137;-19
2021/03/21 08:56:35;;;;;;;9.73;6.55;;;;;;;19.41;26.24;99199.89;1740106;80;21205;-16
2021/03/21 08:59:29;;;;;;;8.30;6.37;;;;;;;19.41;27.29;99203.89;1739442;80;21211;-16
2021/03/21 09:02:04;;;;;;;9.80;6.12;;;;;;;19.48;28.08;99194.45;1776587;79;21185;-16
2021/03/21 09:04:34;;;;;;;6.78;6.00;;;;;;;19.67;28.48;99187.22;1752085;80;21212;-20
2021/03/21 09:07:19;;;;;;;9.35;5.75;;;;;;;19.87;28.58;99191.05;1727803;80;21687;-16
2021/03/21 09:09:50;;;;;;;7.50;6.20;;;;;;;20.04;28.65;99181.20;1769535;80;23197;-17
2021/03/21 09:12:28;;;;;;;6.87;5.83;;;;;;;20.25;28.68;99179.61;1730142;79;21221;-16
2021/03/21 09:15:20;;;;;;;5.87;4.92;;;;;;;20.40;28.71;99175.20;1763252;79;21245;-18
2021/03/21 09:18:21;;;;;;;7.40;5.95;;;;;;;20.58;28.76;99177.37;1769252;79;21239;-16
2021/03/21 09:21:14;;;;;;;5.75;5.12;;;;;;;20.73;28.76;99169.46;1770589;79;21286;-16
2021/03/21 09:24:08;;;;;;;6.05;4.87;;;;;;;20.89;28.80;99162.84;1745062;80;21144;-18
2021/03/21 09:26:43;;;;;;;6.45;5.80;;;;;;;21.02;28.83;99162.17;1768688;79;21176;-16
2021/03/21 09:29:21;;;;;;;5.35;4.78;;;;;;;21.16;28.88;99163.69;1771465;79;21696;-17
2021/03/21 09:31:55;;;;;;;5.78;5.15;;;;;;;21.27;28.91;99149.41;1719734;81;21220;-17
2021/03/21 09:35:08;;;;;;;12.10;5.30;;;;;;;21.38;28.95;99144.47;1741802;81;21176;-16
2021/03/21 09:37:37;;;;;;;8.13;6.70;;;;;;;21.48;28.98;99142.73;1742494;80;21188;-19
2021/03/21 09:40:41;;;;;;;8.40;6.80;;;;;;;21.55;27.31;99139.87;1711583;81;21194;-17
2021/03/21 09:43:15;;;;;;;8.93;7.03;;;;;;;21.48;26.90;99139.55;1739059;81;21200;-19
2021/03/21 09:45:50;;;;;;;9.45;6.60;;;;;;;21.38;27.30;99146.65;1691639;81;21144;-16
2021/03/21 09:48:29;;;;;;;7.95;6.28;;;;;;;21.30;26.99;99131.73;1647577;85;21224;-14
2021/03/21 09:51:14;;;;;;;9.70;6.67;;;;;;;21.22;26.61;99123.54;1734281;81;21212;-13
2021/03/21 09:54:08;;;;;;;6.90;6.10;;;;;;;21.13;26.72;99124.68;1737824;80;21179;-15
2021/03/21 09:56:49;;;;;;;8.60;5.97;;;;;;;21.06;27.29;99106.09;1733913;80;21201;-14
2021/03/21 09:59:56;;;;;;;7.65;5.70;;;;;;;21.02;27.28;99106.01;1742521;81;21184;-15
2021/03/21 10:02:46;;;;;;;7.72;5.37;;;;;;;20.97;27.53;99103.72;1712497;81;21225;-14
2021/03/21 10:05:50;;;;;;;7.62;5.15;;;;;;;20.95;27.74;99093.64;1721834;81;21153;-15
2021/03/21 10:08:48;;;;;;;6.00;5.03;;;;;;;20.94;27.81;99108.48;1700729;81;21161;-16
2021/03/21 10:11:24;;;;;;;5.28;4.70;;;;;;;21.01;29.01;99088.25;1728441;81;21673;-15
2021/03/21 10:13:56;;;;;;;5.67;5.15;;;;;;;21.13;29.02;99095.25;1738718;81;21479;-14
2021/03/21 10:16:29;;;;;;;5.20;4.70;;;;;;;21.19;29.08;99089.02;1738524;81;21164;-17
2021/03/21 10:19:06;;;;;;;4.95;4.42;;;;;;;21.20;29.08;99091.56;1706662;81;21231;-16
2021/03/21 10:21:42;;;;;;;4.62;4.22;;;;;;;21.21;28.83;99076.35;1741130;80;21177;-16
2021/03/21 10:24:31;;;;;;;5.40;4.45;;;;;;;21.20;28.74;99074.64;1740688;81;21108;-16
2021/03/21 10:27:24;;;;;;;4.75;4.33;;;;;;;21.21;28.54;99077.69;1733890;81;21229;-15
2021/03/21 10:30:09;;;;;;;;;;;;;;;21.20;28.34;99073.30;1737761;81;21173;-15
2021/03/21 10:32:44;;;;;;;5.58;4.87;;;;;;;21.19;27.83;99071.63;1728373;81;20250;-18
2021/03/21 10:35:24;;;;;;;7.78;5.35;;;;;;;21.14;26.72;99063.98;1752210;81;21188;-16
2021/03/21 10:37:57;;;;;;;5.97;4.85;;;;;;;20.98;26.04;99056.44;1758471;81;21518;-16
2021/03/21 10:40:32;;;;;;;11.95;5.72;;;;;;;20.80;25.16;99058.84;1693678;83;22125;-15
2021/03/21 10:43:25;;;;;;;7.72;5.58;;;;;;;20.59;25.06;99067.66;1705905;83;21584;-15
2021/03/21 10:45:56;;;;;;;7.17;5.37;;;;;;;20.44;24.88;99060.06;1691298;83;21220;-15
2021/03/21 10:48:31;;;;;;;9.03;5.50;;;;;;;20.28;25.12;99039.95;1653857;83;21302;-17
2021/03/21 10:51:04;;;;;;;6.78;5.15;;;;;;;20.16;24.20;99051.66;1732327;80;21193;-14
2021/03/21 10:53:39;;;;;;;8.83;5.53;;;;;;;20.01;24.74;99035.91;1758533;80;21195;-17
2021/03/21 10:56:20;;;;;;;;;;;;;;;19.94;24.41;99039.19;1759835;80;21598;-14
2021/03/21 10:59:26;;;;;;;9.15;5.28;;;;;;;19.89;24.58;99039.58;1725674;81;20256;-15
2021/03/21 11:02:24;;;;;;;9.20;6.05;;;;;;;19.84;23.90;99041.77;1757990;80;21189;-14
2021/03/21 11:05:06;;;;;;;8.83;5.00;;;;;;;19.63;23.33;99031.80;1748310;81;21656;-16
2021/03/21 11:07:41;;;;;;;16.65;6.80;;;;;;;19.48;24.29;99029.02;1758051;81;21244;-17
2021/03/21 11:10:13;;;;;;;8.18;7.03;;;;;;;19.54;25.27;99032.55;1727044;81;21438;-14
2021/03/21 11:12:42;;;;;;;11.30;8.15;;;;;;;19.61;25.24;99022.23;1706040;80;21171;-14
2021/03/21 11:15:35;;;;;;;10.55;7.45;;;;;;;19.65;24.79;99018.33;1752660;80;21180;-14
2021/03/21 11:18:32;;;;;;;11.08;7.42;;;;;;;19.67;24.91;99005.23;1808083;77;22746;-15
2021/03/21 11:21:18;;;;;;;9.63;6.67;;;;;;;19.63;24.87;99001.10;1788425;77;21113;-14
2021/03/21 11:23:53;;;;;;;8.93;6.25;;;;;;;19.62;24.84;99006.09;1794333;77;21161;-15
2021/03/21 11:26:29;;;;;;;8.58;5.55;;;;;;;19.59;24.49;98984.98;1757375;77;21223;-14
2021/03/21 11:29:13;;;;;;;5.87;5.25;;;;;;;19.53;24.78;98988.14;1786418;77;21168;-15
2021/03/21 11:31:53;;;;;;;421.95;302.15;;;;;;;19.48;25.63;98984.53;1791809;77;21777;-17
2021/03/21 11:34:25;;;;;;;61.98;41.53;;;;;;;19.53;27.17;98979.30;1792188;77;21251;-17
2021/03/21 11:37:07;;;;;;;40.35;26.57;;;;;;;19.60;26.91;98975.16;1706230;82;21180;-16
2021/03/21 11:39:58;;;;;;;44.50;28.15;;;;;;;19.67;26.97;98973.70;1744319;79;21239;-16
2021/03/21 11:42:42;;;;;;;38.23;26.07;;;;;;;19.73;27.80;98969.68;1687274;82;21187;-18
2021/03/21 11:45:26;;;;;;;;;;;;;;;19.89;28.01;98970.16;1701188;80;21142;-15
2021/03/21 11:48:23;;;;;;;26.45;20.57;;;;;;;20.04;28.19;98958.22;1697483;82;20335;-19
2021/03/21 11:50:54;;;;;;;26.02;19.52;;;;;;;20.20;28.11;98951.59;1695622;80;22293;-16
2021/03/21 11:53:27;;;;;;;20.85;14.83;;;;;;;20.34;28.03;98950.42;1720846;80;21191;-17
2021/03/21 11:56:00;;;;;;;17.52;13.75;;;;;;;20.39;26.18;98953.09;1710724;81;21208;-16
2021/03/21 11:58:58;;;;;;;21.27;14.50;;;;;;;20.31;24.71;98944.87;1730393;80;21184;-15
2021/03/21 12:01:49;;;;;;;16.90;13.53;;;;;;;20.14;26.16;98941.41;1709557;82;21180;-16
2021/03/21 12:04:27;;;;;;;19.50;12.33;;;;;;;20.11;26.31;98938.52;1737681;80;21195;-17
2021/03/21 12:07:00;;;;;;;16.82;11.55;;;;;;;20.14;25.83;98935.60;1740118;80;21702;-17
2021/03/21 12:09:36;;;;;;;13.38;9.80;;;;;;;20.15;25.90;98928.43;1701860;81;21228;-16
2021/03/21 12:12:25;;;;;;;12.98;10.48;;;;;;;20.17;25.29;98920.66;1744864;80;21214;-16
2021/03/21 12:14:52;;;;;;;16.12;9.05;;;;;;;20.14;25.58;98914.23;1739539;80;21695;-18
2021/03/21 12:17:29;;;;;;;15.30;9.60;;;;;;;20.15;25.58;98912.41;1711641;80;22004;-18
2021/03/21 12:20:00;;;;;;;11.53;8.83;;;;;;;20.16;25.60;98912.77;1695298;81;21213;-16
2021/03/21 12:22:40;;;;;;;11.55;8.00;;;;;;;20.19;25.41;98915.16;1727056;79;21211;-16
2021/03/21 12:25:29;;;;;;;9.63;8.00;;;;;;;20.20;25.53;98912.86;1699770;81;21143;-16
2021/03/21 12:28:20;;;;;;;12.45;7.87;;;;;;;20.24;25.52;98902.30;1731890;80;22279;-14
2021/03/21 12:30:50;;;;;;;10.98;7.37;;;;;;;20.26;25.17;98904.34;1728345;81;21215;-16
2021/03/21 12:33:34;;;;;;;8.03;7.00;;;;;;;20.24;24.92;98904.97;1703506;82;21153;-14
2021/03/21 12:36:17;;;;;;;9.30;6.75;;;;;;;20.21;24.73;98901.21;1731624;81;21612;-17
2021/03/21 12:38:58;;;;;;;12.23;6.25;;;;;;;20.14;24.53;98908.02;1730078;81;21143;-16
2021/03/21 12:41:42;;;;;;;6.97;6.28;;;;;;;20.05;24.86;98901.64;1728825;80;21189;-15